sensor_id;sensor_type;location;lat;lon;timestamp;noise_LAeq;noise_LA_min;noise_LA_max;noise_LA01;noise_LA95
74470;Laerm;62918;55.706;37.816;2024-01-30T00:00:05;49.32;44.86;56.63;;
74470;Laerm;62918;55.706;37.816;2024-01-30T00:00:36;47.02;43.39;49.92;;
74470;Laerm;62918;55.706;37.816;2024-01-30T00:01:07;47.81;43.22;51.18;;
74470;Laerm;62918;55.706;37.816;2024-01-30T00:01:37;52.88;44.58;58.18;;
74470;Laerm;62918;55.706;37.816;2024-01-30T00:02:08;48.28;42.60;60.06;;
74470;Laerm;62918;55.706;37.816;2024-01-30T00:02:39;45.81;42.20;48.25;;
74470;Laerm;62918;55.706;37.816;2024-01-30T00:03:09;54.27;43.57;62.65;;
74470;Laerm;62918;55.706;37.816;2024-01-30T00:03:40;48.53;44.33;55.60;;
74470;Laerm;62918;55.706;37.816;2024-01-30T00:04:11;53.33;42.47;61.86;;
74470;Laerm;62918;55.706;37.816;2024-01-30T00:04:41;50.41;43.64;60.61;;
74470;Laerm;62918;55.706;37.816;2024-01-30T00:05:12;49.84;44.03;54.54;;
74470;Laerm;62918;55.706;37.816;2024-01-30T00:05:42;55.60;45.99;62.06;;
74470;Laerm;62918;55.706;37.816;2024-01-30T00:06:13;56.47;50.97;61.64;;
74470;Laerm;62918;55.706;37.816;2024-01-30T00:06:44;57.22;46.24;73.27;;
74470;Laerm;62918;55.706;37.816;2024-01-30T00:07:14;51.76;45.36;61.23;;
74470;Laerm;62918;55.706;37.816;2024-01-30T00:07:45;54.31;48.36;66.79;;
74470;Laerm;62918;55.706;37.816;2024-01-30T00:08:16;48.37;44.01;61.47;;
74470;Laerm;62918;55.706;37.816;2024-01-30T00:08:46;46.25;41.83;55.09;;
74470;Laerm;62918;55.706;37.816;2024-01-30T00:09:19;46.62;42.78;53.65;;
74470;Laerm;62918;55.706;37.816;2024-01-30T00:09:49;52.56;43.12;67.21;;
74470;Laerm;62918;55.706;37.816;2024-01-30T00:10:20;54.24;48.06;59.89;;
74470;Laerm;62918;55.706;37.816;2024-01-30T00:10:51;49.47;43.17;58.77;;
74470;Laerm;62918;55.706;37.816;2024-01-30T00:11:21;45.47;42.22;49.52;;
74470;Laerm;62918;55.706;37.816;2024-01-30T00:11:52;46.32;43.04;64.91;;
74470;Laerm;62918;55.706;37.816;2024-01-30T00:12:23;52.93;44.12;62.10;;
74470;Laerm;62918;55.706;37.816;2024-01-30T00:12:53;54.59;44.23;63.60;;
74470;Laerm;62918;55.706;37.816;2024-01-30T00:13:24;54.90;43.32;66.84;;
74470;Laerm;62918;55.706;37.816;2024-01-30T00:13:54;53.49;46.34;58.35;;
74470;Laerm;62918;55.706;37.816;2024-01-30T00:14:28;46.69;43.64;51.82;;
74470;Laerm;62918;55.706;37.816;2024-01-30T00:14:58;49.55;43.92;56.25;;
74470;Laerm;62918;55.706;37.816;2024-01-30T00:15:29;56.38;48.06;65.36;;
74470;Laerm;62918;55.706;37.816;2024-01-30T00:15:59;53.56;44.90;60.10;;
74470;Laerm;62918;55.706;37.816;2024-01-30T00:16:30;46.82;43.97;49.51;;
74470;Laerm;62918;55.706;37.816;2024-01-30T00:17:01;47.02;44.12;53.90;;
74470;Laerm;62918;55.706;37.816;2024-01-30T00:17:31;47.64;44.43;56.09;;
74470;Laerm;62918;55.706;37.816;2024-01-30T00:18:02;50.00;44.74;55.59;;
74470;Laerm;62918;55.706;37.816;2024-01-30T00:18:33;47.23;44.69;50.45;;
74470;Laerm;62918;55.706;37.816;2024-01-30T00:19:03;49.65;44.39;57.69;;
74470;Laerm;62918;55.706;37.816;2024-01-30T00:19:34;50.36;44.12;57.57;;
74470;Laerm;62918;55.706;37.816;2024-01-30T00:20:05;49.57;45.47;55.02;;
74470;Laerm;62918;55.706;37.816;2024-01-30T00:20:36;49.80;45.16;55.99;;
74470;Laerm;62918;55.706;37.816;2024-01-30T00:21:06;48.13;43.51;59.92;;
74470;Laerm;62918;55.706;37.816;2024-01-30T00:21:37;53.74;47.60;58.58;;
74470;Laerm;62918;55.706;37.816;2024-01-30T00:22:07;53.90;44.64;66.53;;
74470;Laerm;62918;55.706;37.816;2024-01-30T00:22:38;56.20;45.50;63.93;;
74470;Laerm;62918;55.706;37.816;2024-01-30T00:23:09;46.70;43.34;52.35;;
74470;Laerm;62918;55.706;37.816;2024-01-30T00:23:39;46.37;43.92;49.78;;
74470;Laerm;62918;55.706;37.816;2024-01-30T00:24:10;59.79;44.84;68.15;;
74470;Laerm;62918;55.706;37.816;2024-01-30T00:24:40;47.91;43.38;56.50;;
74470;Laerm;62918;55.706;37.816;2024-01-30T00:25:11;48.76;44.27;57.59;;
74470;Laerm;62918;55.706;37.816;2024-01-30T00:25:41;46.07;43.01;49.00;;
74470;Laerm;62918;55.706;37.816;2024-01-30T00:26:12;46.44;43.69;51.27;;
74470;Laerm;62918;55.706;37.816;2024-01-30T00:26:43;47.80;43.77;52.64;;
74470;Laerm;62918;55.706;37.816;2024-01-30T00:27:13;56.00;43.80;61.90;;
74470;Laerm;62918;55.706;37.816;2024-01-30T00:27:44;47.82;43.80;55.98;;
74470;Laerm;62918;55.706;37.816;2024-01-30T00:28:14;49.76;44.12;55.71;;
74470;Laerm;62918;55.706;37.816;2024-01-30T00:28:45;49.14;43.28;56.46;;
74470;Laerm;62918;55.706;37.816;2024-01-30T00:29:15;49.35;43.76;53.60;;
74470;Laerm;62918;55.706;37.816;2024-01-30T00:29:49;47.89;43.39;54.49;;
74470;Laerm;62918;55.706;37.816;2024-01-30T00:30:20;57.00;45.02;68.63;;
74470;Laerm;62918;55.706;37.816;2024-01-30T00:30:51;47.23;44.09;51.99;;
74470;Laerm;62918;55.706;37.816;2024-01-30T00:31:21;52.02;45.00;59.93;;
74470;Laerm;62918;55.706;37.816;2024-01-30T00:31:52;52.65;44.68;58.45;;
74470;Laerm;62918;55.706;37.816;2024-01-30T00:32:23;46.58;44.04;54.27;;
74470;Laerm;62918;55.706;37.816;2024-01-30T00:32:54;46.11;43.09;50.54;;
74470;Laerm;62918;55.706;37.816;2024-01-30T00:33:24;45.32;42.22;48.89;;
74470;Laerm;62918;55.706;37.816;2024-01-30T00:33:55;45.80;42.44;49.04;;
74470;Laerm;62918;55.706;37.816;2024-01-30T00:34:26;45.56;42.93;50.83;;
74470;Laerm;62918;55.706;37.816;2024-01-30T00:34:56;45.48;42.61;49.95;;
74470;Laerm;62918;55.706;37.816;2024-01-30T00:35:27;46.26;43.34;50.61;;
74470;Laerm;62918;55.706;37.816;2024-01-30T00:35:59;46.63;43.59;49.46;;
74470;Laerm;62918;55.706;37.816;2024-01-30T00:36:30;47.80;43.34;54.47;;
74470;Laerm;62918;55.706;37.816;2024-01-30T00:37:01;49.26;44.37;54.50;;
74470;Laerm;62918;55.706;37.816;2024-01-30T00:37:31;46.42;42.91;49.38;;
74470;Laerm;62918;55.706;37.816;2024-01-30T00:38:02;51.48;44.72;59.17;;
74470;Laerm;62918;55.706;37.816;2024-01-30T00:38:33;47.18;43.74;53.33;;
74470;Laerm;62918;55.706;37.816;2024-01-30T00:39:03;61.55;46.97;75.78;;
74470;Laerm;62918;55.706;37.816;2024-01-30T00:39:39;49.48;43.94;55.02;;
74470;Laerm;62918;55.706;37.816;2024-01-30T00:40:10;48.01;44.62;57.36;;
74470;Laerm;62918;55.706;37.816;2024-01-30T00:40:45;54.31;47.80;69.57;;
74470;Laerm;62918;55.706;37.816;2024-01-30T00:41:18;54.38;46.22;62.92;;
74470;Laerm;62918;55.706;37.816;2024-01-30T00:41:49;50.38;43.56;65.19;;
74470;Laerm;62918;55.706;37.816;2024-01-30T00:42:20;53.68;44.36;60.03;;
74470;Laerm;62918;55.706;37.816;2024-01-30T00:42:51;51.68;46.76;57.10;;
74470;Laerm;62918;55.706;37.816;2024-01-30T00:43:23;53.11;46.89;58.88;;
74470;Laerm;62918;55.706;37.816;2024-01-30T00:43:55;49.25;45.19;53.98;;
74470;Laerm;62918;55.706;37.816;2024-01-30T00:44:26;51.77;44.17;58.15;;
74470;Laerm;62918;55.706;37.816;2024-01-30T00:44:56;58.32;47.74;63.60;;
74470;Laerm;62918;55.706;37.816;2024-01-30T00:45:27;49.70;44.93;55.05;;
74470;Laerm;62918;55.706;37.816;2024-01-30T00:45:58;56.36;45.86;61.83;;
74470;Laerm;62918;55.706;37.816;2024-01-30T00:46:28;55.60;43.63;68.47;;
74470;Laerm;62918;55.706;37.816;2024-01-30T00:46:59;55.05;43.20;64.40;;
74470;Laerm;62918;55.706;37.816;2024-01-30T00:47:29;56.22;43.59;66.86;;
74470;Laerm;62918;55.706;37.816;2024-01-30T00:48:00;59.89;44.42;67.66;;
74470;Laerm;62918;55.706;37.816;2024-01-30T00:48:30;51.26;44.14;59.40;;
74470;Laerm;62918;55.706;37.816;2024-01-30T00:49:01;52.93;44.43;58.72;;
74470;Laerm;62918;55.706;37.816;2024-01-30T00:49:32;50.45;44.71;58.26;;
74470;Laerm;62918;55.706;37.816;2024-01-30T00:50:02;50.62;44.84;58.51;;
74470;Laerm;62918;55.706;37.816;2024-01-30T00:50:33;56.32;46.50;63.14;;
74470;Laerm;62918;55.706;37.816;2024-01-30T00:51:04;49.59;43.74;56.04;;
74470;Laerm;62918;55.706;37.816;2024-01-30T00:51:34;48.30;43.96;54.01;;
74470;Laerm;62918;55.706;37.816;2024-01-30T00:52:05;50.94;43.33;56.46;;
74470;Laerm;62918;55.706;37.816;2024-01-30T00:52:36;46.18;43.35;49.54;;
74470;Laerm;62918;55.706;37.816;2024-01-30T00:53:06;47.56;43.53;55.92;;
74470;Laerm;62918;55.706;37.816;2024-01-30T00:53:37;52.53;45.86;60.84;;
74470;Laerm;62918;55.706;37.816;2024-01-30T00:54:07;53.78;44.69;62.99;;
74470;Laerm;62918;55.706;37.816;2024-01-30T00:54:38;50.06;43.21;67.64;;
74470;Laerm;62918;55.706;37.816;2024-01-30T00:55:09;46.08;42.60;53.70;;
74470;Laerm;62918;55.706;37.816;2024-01-30T00:55:39;45.75;42.92;57.11;;
74470;Laerm;62918;55.706;37.816;2024-01-30T00:56:10;45.44;42.46;53.48;;
74470;Laerm;62918;55.706;37.816;2024-01-30T00:56:40;49.13;44.11;55.18;;
74470;Laerm;62918;55.706;37.816;2024-01-30T00:57:11;50.70;44.80;56.27;;
74470;Laerm;62918;55.706;37.816;2024-01-30T00:57:41;51.66;45.91;57.84;;
74470;Laerm;62918;55.706;37.816;2024-01-30T00:58:12;52.25;45.91;58.74;;
74470;Laerm;62918;55.706;37.816;2024-01-30T00:58:42;54.22;48.79;59.86;;
74470;Laerm;62918;55.706;37.816;2024-01-30T00:59:13;48.74;44.33;56.01;;
74470;Laerm;62918;55.706;37.816;2024-01-30T00:59:43;49.74;43.52;59.06;;
74470;Laerm;62918;55.706;37.816;2024-01-30T01:00:14;55.58;46.50;63.01;;
74470;Laerm;62918;55.706;37.816;2024-01-30T01:00:48;53.42;44.86;62.13;;
74470;Laerm;62918;55.706;37.816;2024-01-30T01:01:18;47.02;44.21;50.65;;
74470;Laerm;62918;55.706;37.816;2024-01-30T01:01:49;54.81;45.23;61.33;;
74470;Laerm;62918;55.706;37.816;2024-01-30T01:02:20;53.57;46.83;59.55;;
74470;Laerm;62918;55.706;37.816;2024-01-30T01:02:50;54.62;47.18;60.54;;
74470;Laerm;62918;55.706;37.816;2024-01-30T01:03:21;52.07;44.45;57.32;;
74470;Laerm;62918;55.706;37.816;2024-01-30T01:03:51;50.76;45.28;56.75;;
74470;Laerm;62918;55.706;37.816;2024-01-30T01:04:22;46.87;42.62;55.35;;
74470;Laerm;62918;55.706;37.816;2024-01-30T01:04:52;50.39;43.13;58.00;;
74470;Laerm;62918;55.706;37.816;2024-01-30T01:05:23;46.68;43.80;49.71;;
74470;Laerm;62918;55.706;37.816;2024-01-30T01:05:53;56.93;44.91;63.82;;
74470;Laerm;62918;55.706;37.816;2024-01-30T01:06:24;50.98;43.45;60.94;;
74470;Laerm;62918;55.706;37.816;2024-01-30T01:06:54;45.10;42.39;47.84;;
74470;Laerm;62918;55.706;37.816;2024-01-30T01:07:25;45.17;42.59;48.09;;
74470;Laerm;62918;55.706;37.816;2024-01-30T01:07:55;51.32;43.23;61.61;;
74470;Laerm;62918;55.706;37.816;2024-01-30T01:08:26;51.02;45.15;55.83;;
74470;Laerm;62918;55.706;37.816;2024-01-30T01:08:57;48.62;45.82;52.49;;
74470;Laerm;62918;55.706;37.816;2024-01-30T01:09:27;51.03;46.34;60.90;;
74470;Laerm;62918;55.706;37.816;2024-01-30T01:09:58;54.61;47.81;60.27;;
74470;Laerm;62918;55.706;37.816;2024-01-30T01:10:28;58.24;48.89;70.73;;
74470;Laerm;62918;55.706;37.816;2024-01-30T01:10:59;51.50;44.85;59.12;;
74470;Laerm;62918;55.706;37.816;2024-01-30T01:11:29;46.65;43.97;49.71;;
74470;Laerm;62918;55.706;37.816;2024-01-30T01:12:00;47.40;43.93;50.38;;
74470;Laerm;62918;55.706;37.816;2024-01-30T01:12:30;48.42;42.62;56.63;;
74470;Laerm;62918;55.706;37.816;2024-01-30T01:13:01;54.06;43.79;60.52;;
74470;Laerm;62918;55.706;37.816;2024-01-30T01:13:31;53.96;43.06;61.26;;
74470;Laerm;62918;55.706;37.816;2024-01-30T01:14:02;54.14;45.00;60.19;;
74470;Laerm;62918;55.706;37.816;2024-01-30T01:14:33;46.67;44.25;49.13;;
74470;Laerm;62918;55.706;37.816;2024-01-30T01:15:03;48.26;43.78;54.43;;
74470;Laerm;62918;55.706;37.816;2024-01-30T01:15:35;55.21;45.24;68.05;;
74470;Laerm;62918;55.706;37.816;2024-01-30T01:16:06;56.21;48.41;65.89;;
74470;Laerm;62918;55.706;37.816;2024-01-30T01:16:36;53.88;45.31;60.55;;
74470;Laerm;62918;55.706;37.816;2024-01-30T01:17:07;50.86;44.66;58.57;;
74470;Laerm;62918;55.706;37.816;2024-01-30T01:17:38;55.61;44.27;64.66;;
74470;Laerm;62918;55.706;37.816;2024-01-30T01:18:09;55.67;44.62;63.69;;
74470;Laerm;62918;55.706;37.816;2024-01-30T01:18:39;51.84;44.37;57.59;;
74470;Laerm;62918;55.706;37.816;2024-01-30T01:19:10;49.27;44.08;57.38;;
74470;Laerm;62918;55.706;37.816;2024-01-30T01:19:40;54.42;46.76;60.47;;
74470;Laerm;62918;55.706;37.816;2024-01-30T01:20:11;48.58;44.12;55.66;;
74470;Laerm;62918;55.706;37.816;2024-01-30T01:20:41;53.13;44.90;67.33;;
74470;Laerm;62918;55.706;37.816;2024-01-30T01:21:12;58.05;47.39;66.00;;
74470;Laerm;62918;55.706;37.816;2024-01-30T01:21:42;47.14;43.31;51.65;;
74470;Laerm;62918;55.706;37.816;2024-01-30T01:22:13;46.27;42.97;50.56;;
74470;Laerm;62918;55.706;37.816;2024-01-30T01:22:44;48.48;43.34;58.30;;
74470;Laerm;62918;55.706;37.816;2024-01-30T01:23:14;49.44;43.61;58.80;;
74470;Laerm;62918;55.706;37.816;2024-01-30T01:23:45;48.01;45.62;52.11;;
74470;Laerm;62918;55.706;37.816;2024-01-30T01:24:15;55.18;46.27;61.13;;
74470;Laerm;62918;55.706;37.816;2024-01-30T01:24:46;56.61;45.67;65.73;;
74470;Laerm;62918;55.706;37.816;2024-01-30T01:25:16;58.84;43.54;67.27;;
74470;Laerm;62918;55.706;37.816;2024-01-30T01:25:47;51.41;45.74;57.12;;
74470;Laerm;62918;55.706;37.816;2024-01-30T01:26:18;50.31;44.49;58.28;;
74470;Laerm;62918;55.706;37.816;2024-01-30T01:26:48;47.31;44.01;62.94;;
74470;Laerm;62918;55.706;37.816;2024-01-30T01:27:19;48.88;44.18;54.69;;
74470;Laerm;62918;55.706;37.816;2024-01-30T01:27:49;46.47;43.87;49.50;;
74470;Laerm;62918;55.706;37.816;2024-01-30T01:28:22;48.41;44.69;51.50;;
74470;Laerm;62918;55.706;37.816;2024-01-30T01:28:52;51.31;44.91;65.60;;
74470;Laerm;62918;55.706;37.816;2024-01-30T01:29:23;55.85;45.63;62.18;;
74470;Laerm;62918;55.706;37.816;2024-01-30T01:29:58;54.69;47.14;64.19;;
74470;Laerm;62918;55.706;37.816;2024-01-30T01:30:29;51.97;45.21;61.83;;
74470;Laerm;62918;55.706;37.816;2024-01-30T01:31:00;49.20;45.54;58.61;;
74470;Laerm;62918;55.706;37.816;2024-01-30T01:31:38;48.97;43.66;55.47;;
74470;Laerm;62918;55.706;37.816;2024-01-30T01:32:14;46.21;43.01;49.70;;
74470;Laerm;62918;55.706;37.816;2024-01-30T01:32:45;48.55;44.45;55.29;;
74470;Laerm;62918;55.706;37.816;2024-01-30T01:33:21;62.03;45.04;70.57;;
74470;Laerm;62918;55.706;37.816;2024-01-30T01:33:51;59.94;50.06;67.02;;
74470;Laerm;62918;55.706;37.816;2024-01-30T01:34:22;50.87;45.41;57.00;;
74470;Laerm;62918;55.706;37.816;2024-01-30T01:34:54;53.28;45.05;60.64;;
74470;Laerm;62918;55.706;37.816;2024-01-30T01:35:24;50.98;46.19;58.32;;
74470;Laerm;62918;55.706;37.816;2024-01-30T01:35:55;52.59;44.35;59.30;;
74470;Laerm;62918;55.706;37.816;2024-01-30T01:36:26;49.01;45.33;53.80;;
74470;Laerm;62918;55.706;37.816;2024-01-30T01:36:56;48.01;43.84;51.97;;
74470;Laerm;62918;55.706;37.816;2024-01-30T01:37:27;49.76;46.04;53.46;;
74470;Laerm;62918;55.706;37.816;2024-01-30T01:37:58;58.63;47.48;78.36;;
74470;Laerm;62918;55.706;37.816;2024-01-30T01:38:30;56.43;45.52;63.29;;
74470;Laerm;62918;55.706;37.816;2024-01-30T01:39:01;48.56;44.62;53.46;;
74470;Laerm;62918;55.706;37.816;2024-01-30T01:39:31;47.25;43.17;50.46;;
74470;Laerm;62918;55.706;37.816;2024-01-30T01:40:02;46.52;43.80;48.77;;
74470;Laerm;62918;55.706;37.816;2024-01-30T01:40:33;46.34;43.64;51.16;;
74470;Laerm;62918;55.706;37.816;2024-01-30T01:41:03;51.42;44.27;57.95;;
74470;Laerm;62918;55.706;37.816;2024-01-30T01:41:34;54.86;44.53;62.34;;
74470;Laerm;62918;55.706;37.816;2024-01-30T01:42:04;50.84;46.31;56.49;;
74470;Laerm;62918;55.706;37.816;2024-01-30T01:42:35;52.59;44.80;58.34;;
74470;Laerm;62918;55.706;37.816;2024-01-30T01:43:06;46.95;43.77;58.98;;
74470;Laerm;62918;55.706;37.816;2024-01-30T01:43:36;49.05;44.40;55.98;;
74470;Laerm;62918;55.706;37.816;2024-01-30T01:44:09;56.38;47.67;62.85;;
74470;Laerm;62918;55.706;37.816;2024-01-30T01:44:40;57.61;47.95;63.66;;
74470;Laerm;62918;55.706;37.816;2024-01-30T01:45:10;56.16;47.14;64.67;;
74470;Laerm;62918;55.706;37.816;2024-01-30T01:45:41;60.61;49.11;75.27;;
74470;Laerm;62918;55.706;37.816;2024-01-30T01:46:11;53.22;49.35;60.54;;
74470;Laerm;62918;55.706;37.816;2024-01-30T01:46:42;61.63;48.63;67.34;;
74470;Laerm;62918;55.706;37.816;2024-01-30T01:47:13;47.98;44.65;52.84;;
74470;Laerm;62918;55.706;37.816;2024-01-30T01:47:44;47.78;44.99;52.79;;
74470;Laerm;62918;55.706;37.816;2024-01-30T01:48:17;53.14;44.05;61.88;;
74470;Laerm;62918;55.706;37.816;2024-01-30T01:48:48;53.28;44.75;61.67;;
74470;Laerm;62918;55.706;37.816;2024-01-30T01:49:19;52.12;45.13;61.41;;
74470;Laerm;62918;55.706;37.816;2024-01-30T01:49:50;48.13;45.30;52.06;;
74470;Laerm;62918;55.706;37.816;2024-01-30T01:50:21;55.50;50.78;60.58;;
74470;Laerm;62918;55.706;37.816;2024-01-30T01:50:52;48.88;44.27;55.52;;
74470;Laerm;62918;55.706;37.816;2024-01-30T01:51:24;53.14;45.83;59.21;;
74470;Laerm;62918;55.706;37.816;2024-01-30T01:51:58;49.42;45.03;55.85;;
74470;Laerm;62918;55.706;37.816;2024-01-30T01:52:29;49.19;44.77;55.13;;
74470;Laerm;62918;55.706;37.816;2024-01-30T01:52:59;55.94;47.15;62.01;;
74470;Laerm;62918;55.706;37.816;2024-01-30T01:53:30;48.20;45.20;53.23;;
74470;Laerm;62918;55.706;37.816;2024-01-30T01:54:04;47.62;44.90;53.70;;
74470;Laerm;62918;55.706;37.816;2024-01-30T01:54:35;47.11;44.40;49.70;;
74470;Laerm;62918;55.706;37.816;2024-01-30T01:55:06;50.60;44.17;56.09;;
74470;Laerm;62918;55.706;37.816;2024-01-30T01:55:38;50.05;46.41;54.26;;
74470;Laerm;62918;55.706;37.816;2024-01-30T01:56:08;55.49;45.72;62.11;;
74470;Laerm;62918;55.706;37.816;2024-01-30T01:56:39;51.88;44.72;59.05;;
74470;Laerm;62918;55.706;37.816;2024-01-30T01:57:10;51.85;46.17;57.88;;
74470;Laerm;62918;55.706;37.816;2024-01-30T01:57:41;48.94;45.73;54.19;;
74470;Laerm;62918;55.706;37.816;2024-01-30T01:58:12;48.03;44.53;61.22;;
74470;Laerm;62918;55.706;37.816;2024-01-30T01:58:44;48.16;45.29;55.40;;
74470;Laerm;62918;55.706;37.816;2024-01-30T01:59:17;52.74;45.88;59.58;;
74470;Laerm;62918;55.706;37.816;2024-01-30T01:59:48;47.54;44.96;52.78;;
74470;Laerm;62918;55.706;37.816;2024-01-30T02:00:20;53.13;46.50;61.04;;
74470;Laerm;62918;55.706;37.816;2024-01-30T02:00:50;49.56;45.98;54.40;;
74470;Laerm;62918;55.706;37.816;2024-01-30T02:01:23;56.35;46.06;73.35;;
74470;Laerm;62918;55.706;37.816;2024-01-30T02:01:55;52.72;47.20;65.05;;
74470;Laerm;62918;55.706;37.816;2024-01-30T02:02:27;51.43;46.57;55.78;;
74470;Laerm;62918;55.706;37.816;2024-01-30T02:03:00;50.42;45.61;56.37;;
74470;Laerm;62918;55.706;37.816;2024-01-30T02:03:34;55.60;48.03;61.50;;
74470;Laerm;62918;55.706;37.816;2024-01-30T02:04:05;54.29;46.12;61.42;;
74470;Laerm;62918;55.706;37.816;2024-01-30T02:04:35;57.87;49.76;73.95;;
74470;Laerm;62918;55.706;37.816;2024-01-30T02:05:06;56.61;49.48;61.99;;
74470;Laerm;62918;55.706;37.816;2024-01-30T02:05:37;55.77;50.17;61.87;;
74470;Laerm;62918;55.706;37.816;2024-01-30T02:06:08;60.02;51.45;67.40;;
74470;Laerm;62918;55.706;37.816;2024-01-30T02:06:39;57.25;47.54;66.35;;
74470;Laerm;62918;55.706;37.816;2024-01-30T02:07:10;55.82;49.14;63.14;;
74470;Laerm;62918;55.706;37.816;2024-01-30T02:07:41;54.69;49.74;61.32;;
74470;Laerm;62918;55.706;37.816;2024-01-30T02:08:12;51.52;48.65;57.29;;
74470;Laerm;62918;55.706;37.816;2024-01-30T02:08:43;56.20;48.81;65.67;;
74470;Laerm;62918;55.706;37.816;2024-01-30T02:09:13;55.17;48.96;62.95;;
74470;Laerm;62918;55.706;37.816;2024-01-30T02:09:44;55.78;51.13;59.25;;
74470;Laerm;62918;55.706;37.816;2024-01-30T02:10:14;54.16;50.63;66.57;;
74470;Laerm;62918;55.706;37.816;2024-01-30T02:10:45;52.39;49.35;55.93;;
74470;Laerm;62918;55.706;37.816;2024-01-30T02:11:16;56.04;49.89;61.37;;
74470;Laerm;62918;55.706;37.816;2024-01-30T02:11:47;59.35;51.76;65.38;;
74470;Laerm;62918;55.706;37.816;2024-01-30T02:12:18;56.20;50.55;68.64;;
74470;Laerm;62918;55.706;37.816;2024-01-30T02:12:48;52.92;49.57;58.76;;
74470;Laerm;62918;55.706;37.816;2024-01-30T02:13:21;51.16;48.92;55.56;;
74470;Laerm;62918;55.706;37.816;2024-01-30T02:13:52;53.25;49.04;61.11;;
74470;Laerm;62918;55.706;37.816;2024-01-30T02:14:23;57.56;52.81;62.54;;
74470;Laerm;62918;55.706;37.816;2024-01-30T02:14:53;56.79;51.83;63.94;;
74470;Laerm;62918;55.706;37.816;2024-01-30T02:15:25;58.94;49.95;63.15;;
74470;Laerm;62918;55.706;37.816;2024-01-30T02:15:55;59.82;51.98;68.70;;
74470;Laerm;62918;55.706;37.816;2024-01-30T02:16:26;65.30;56.66;73.06;;
74470;Laerm;62918;55.706;37.816;2024-01-30T02:16:57;58.11;52.22;71.84;;
74470;Laerm;62918;55.706;37.816;2024-01-30T02:17:28;60.75;53.57;69.32;;
74470;Laerm;62918;55.706;37.816;2024-01-30T02:17:58;55.54;50.43;59.32;;
74470;Laerm;62918;55.706;37.816;2024-01-30T02:18:49;56.39;49.86;64.99;;
74470;Laerm;62918;55.706;37.816;2024-01-30T02:19:22;54.84;49.50;59.35;;
74470;Laerm;62918;55.706;37.816;2024-01-30T02:19:53;57.02;53.01;61.92;;
74470;Laerm;62918;55.706;37.816;2024-01-30T02:20:24;57.72;50.79;64.01;;
74470;Laerm;62918;55.706;37.816;2024-01-30T02:20:56;58.93;51.45;64.02;;
74470;Laerm;62918;55.706;37.816;2024-01-30T02:21:28;56.02;49.64;63.78;;
74470;Laerm;62918;55.706;37.816;2024-01-30T02:21:59;55.98;50.49;63.19;;
74470;Laerm;62918;55.706;37.816;2024-01-30T02:22:30;56.43;51.91;64.43;;
74470;Laerm;62918;55.706;37.816;2024-01-30T02:23:02;53.41;49.81;56.89;;
74470;Laerm;62918;55.706;37.816;2024-01-30T02:23:33;54.42;49.78;60.69;;
74470;Laerm;62918;55.706;37.816;2024-01-30T02:24:04;54.85;49.78;61.63;;
74470;Laerm;62918;55.706;37.816;2024-01-30T02:24:35;58.31;50.21;66.75;;
74470;Laerm;62918;55.706;37.816;2024-01-30T02:25:06;58.98;51.73;65.69;;
74470;Laerm;62918;55.706;37.816;2024-01-30T02:25:39;59.24;52.72;64.95;;
74470;Laerm;62918;55.706;37.816;2024-01-30T02:26:16;55.12;49.28;61.14;;
74470;Laerm;62918;55.706;37.816;2024-01-30T02:26:47;53.16;49.27;59.69;;
74470;Laerm;62918;55.706;37.816;2024-01-30T02:27:17;57.39;51.41;62.88;;
74470;Laerm;62918;55.706;37.816;2024-01-30T02:27:48;59.58;51.19;64.58;;
74470;Laerm;62918;55.706;37.816;2024-01-30T02:28:19;55.54;50.42;62.12;;
74470;Laerm;62918;55.706;37.816;2024-01-30T02:28:50;55.45;50.44;61.43;;
74470;Laerm;62918;55.706;37.816;2024-01-30T02:29:20;53.86;48.82;60.07;;
74470;Laerm;62918;55.706;37.816;2024-01-30T02:29:51;52.15;48.69;60.55;;
74470;Laerm;62918;55.706;37.816;2024-01-30T02:30:22;55.43;48.71;60.65;;
74470;Laerm;62918;55.706;37.816;2024-01-30T02:30:53;53.07;49.14;63.04;;
74470;Laerm;62918;55.706;37.816;2024-01-30T02:31:25;53.41;49.53;57.86;;
74470;Laerm;62918;55.706;37.816;2024-01-30T02:31:55;58.81;52.66;63.61;;
74470;Laerm;62918;55.706;37.816;2024-01-30T02:32:26;57.63;54.46;61.95;;
74470;Laerm;62918;55.706;37.816;2024-01-30T02:32:57;61.65;54.80;70.15;;
74470;Laerm;62918;55.706;37.816;2024-01-30T02:33:27;64.52;52.07;70.30;;
74470;Laerm;62918;55.706;37.816;2024-01-30T02:33:58;61.08;52.00;66.24;;
74470;Laerm;62918;55.706;37.816;2024-01-30T02:34:28;58.16;52.10;65.00;;
74470;Laerm;62918;55.706;37.816;2024-01-30T02:34:59;58.85;53.55;66.27;;
74470;Laerm;62918;55.706;37.816;2024-01-30T02:35:29;57.50;52.00;62.92;;
74470;Laerm;62918;55.706;37.816;2024-01-30T02:36:00;54.73;50.98;58.26;;
74470;Laerm;62918;55.706;37.816;2024-01-30T02:36:30;58.12;51.09;63.08;;
74470;Laerm;62918;55.706;37.816;2024-01-30T02:37:01;56.26;49.90;61.36;;
74470;Laerm;62918;55.706;37.816;2024-01-30T02:37:31;56.22;52.47;60.62;;
74470;Laerm;62918;55.706;37.816;2024-01-30T02:38:02;57.02;49.63;64.16;;
74470;Laerm;62918;55.706;37.816;2024-01-30T02:38:32;56.70;49.75;61.97;;
74470;Laerm;62918;55.706;37.816;2024-01-30T02:39:03;62.10;56.07;66.39;;
74470;Laerm;62918;55.706;37.816;2024-01-30T02:39:34;60.18;50.84;66.42;;
74470;Laerm;62918;55.706;37.816;2024-01-30T02:40:05;56.62;49.94;66.46;;
74470;Laerm;62918;55.706;37.816;2024-01-30T02:40:36;60.29;52.92;65.79;;
74470;Laerm;62918;55.706;37.816;2024-01-30T02:41:06;56.98;52.22;62.07;;
74470;Laerm;62918;55.706;37.816;2024-01-30T02:41:37;56.69;50.53;63.71;;
74470;Laerm;62918;55.706;37.816;2024-01-30T02:42:07;53.06;49.52;57.35;;
74470;Laerm;62918;55.706;37.816;2024-01-30T02:42:39;58.90;51.90;66.12;;
74470;Laerm;62918;55.706;37.816;2024-01-30T02:43:09;57.20;52.60;69.88;;
74470;Laerm;62918;55.706;37.816;2024-01-30T02:43:40;59.41;51.97;65.87;;
74470;Laerm;62918;55.706;37.816;2024-01-30T02:44:11;59.27;54.10;65.23;;
74470;Laerm;62918;55.706;37.816;2024-01-30T02:44:41;60.56;52.66;66.73;;
74470;Laerm;62918;55.706;37.816;2024-01-30T02:45:12;58.09;52.87;65.47;;
74470;Laerm;62918;55.706;37.816;2024-01-30T02:45:43;60.43;56.39;66.08;;
74470;Laerm;62918;55.706;37.816;2024-01-30T02:46:13;61.92;58.16;67.34;;
74470;Laerm;62918;55.706;37.816;2024-01-30T02:46:44;60.17;57.15;63.04;;
74470;Laerm;62918;55.706;37.816;2024-01-30T02:47:14;59.05;52.31;67.87;;
74470;Laerm;62918;55.706;37.816;2024-01-30T02:47:46;54.60;50.33;62.32;;
74470;Laerm;62918;55.706;37.816;2024-01-30T02:48:16;57.05;52.87;62.40;;
74470;Laerm;62918;55.706;37.816;2024-01-30T02:48:47;58.33;52.14;65.10;;
74470;Laerm;62918;55.706;37.816;2024-01-30T02:49:17;62.66;54.70;70.15;;
74470;Laerm;62918;55.706;37.816;2024-01-30T02:49:48;59.80;53.07;64.71;;
74470;Laerm;62918;55.706;37.816;2024-01-30T02:50:18;61.53;49.79;67.65;;
74470;Laerm;62918;55.706;37.816;2024-01-30T02:50:49;53.13;49.29;59.67;;